FRA weather

Frankfurt am Main International Airport
Frankfurt-am-Main, Hesse, Germany

Public forecast

Using degrees Celsius for public forecast. Weather courtesy of forecast.io.

METAR (pilot weather report)

Retrieved 2017/04/24 09:20 UTC (0 seconds ago):

EDDF 240920Z 19008KT 150V220 9999 FEW044 BKN250 12/M01 Q1018 NOSIG

TAF (pilot weather forecast)

Forecast is more than 12 hours old.

Retrieved 2017/04/23 00:27 UTC (1 day ago):

TAF EDDF 232300Z 2400/2506 VRB03KT CAVOK BECMG 2408/2411 22006KT